This is the latest recevied weather packets stored in our database for station/object WP3OF-3. If no packets are shown the sender has not sent any weather packets the latest 10 day(s).
| Time | Temp. | Humidity | Pressure | Rain* | Wind** | Luminosity | Snow |
|---|---|---|---|---|---|---|---|
| 1778090013 | 28.89° C | 74% | 1019.7 hPa | 0 mm | - | - | - |
| 1778089710 | 29.44° C | 73% | 1019.8 hPa | 0 mm | - | - | - |
| 1778089407 | 28.89° C | 75% | 1019.9 hPa | 0 mm | - | - | - |
| 1778089104 | 28.89° C | 75% | 1019.8 hPa | 0 mm | - | - | - |
| 1778088801 | 29.44° C | 74% | 1019.8 hPa | 0 mm | - | - | - |
| 1778088498 | 29.44° C | 74% | 1020 hPa | 0 mm | - | - | - |
| 1778088194 | 30° C | 73% | 1020.3 hPa | 0 mm | - | - | - |
| 1778087892 | 29.44° C | 74% | 1020.2 hPa | 0 mm | - | - | - |
| 1778087589 | 29.44° C | 73% | 1020.2 hPa | 0 mm | - | - | - |
| 1778087287 | 29.44° C | 75% | 1020.5 hPa | 0 mm | - | - | - |
| 1778086982 | 29.44° C | 73% | 1020.4 hPa | 0 mm | - | - | - |
| 1778086682 | 30° C | 74% | 1020.4 hPa | 0 mm | - | - | - |
| 1778086379 | 29.44° C | 73% | 1020.7 hPa | 0 mm | - | - | - |
| 1778086075 | 29.44° C | 72% | 1020.8 hPa | 0 mm | - | - | - |
| 1778085772 | 28.33° C | 74% | 1021 hPa | 0 mm | - | - | - |
| 1778085469 | 28.89° C | 73% | 1020.9 hPa | 0 mm | - | - | - |
| 1778085164 | 28.89° C | 73% | 1020.9 hPa | 0 mm | - | - | - |
| 1778084860 | 28.89° C | 72% | 1020.9 hPa | 0 mm | - | - | - |
| 1778084558 | 28.89° C | 72% | 1021.2 hPa | 0 mm | - | - | - |
| 1778084255 | 29.44° C | 71% | 1021.1 hPa | 0 mm | - | - | - |
| 1778083952 | 29.44° C | 72% | 1021.1 hPa | 0 mm | - | - | - |
| 1778083650 | 29.44° C | 72% | 1021.1 hPa | 0 mm | - | - | - |
| 1778083346 | 30° C | 70% | 1021.2 hPa | 0 mm | - | - | - |
| 1778083046 | 30° C | 70% | 1021.1 hPa | 0 mm | - | - | - |
| 1778082742 | 31.11° C | 67% | 1021.1 hPa | 0 mm | - | - | - |
* Rain latest hour (hover to see other rain measurements)
** Current wind speed in m/s (hover to see current wind gust speed)